createdAt,value
2022-12-31T00:00:02.769Z,35.83
2022-12-31T00:01:08.791Z,34.65
2022-12-31T00:02:10.883Z,32.13
2022-12-31T00:03:13.573Z,29.67
2022-12-31T00:04:15.762Z,29.88
2022-12-31T00:05:18.052Z,27.20
2022-12-31T00:06:26.982Z,32.10
2022-12-31T00:07:29.021Z,29.13
2022-12-31T00:08:31.004Z,31.48
2022-12-31T00:09:33.264Z,30.93
2022-12-31T00:10:41.375Z,29.85
2022-12-31T00:11:43.530Z,29.25
2022-12-31T00:12:45.460Z,29.15
2022-12-31T00:13:48.199Z,30.13
2022-12-31T00:14:50.211Z,31.25
2022-12-31T00:15:54.387Z,37.65
2022-12-31T00:16:56.413Z,28.38
2022-12-31T00:17:58.388Z,31.55
2022-12-31T00:19:01.789Z,45.17
2022-12-31T00:20:06.819Z,38.90
2022-12-31T00:21:09.828Z,46.28
2022-12-31T00:22:12.518Z,39.17
2022-12-31T00:23:14.572Z,33.80
2022-12-31T00:24:16.527Z,33.45
2022-12-31T00:25:18.878Z,33.55
2022-12-31T00:26:24.985Z,31.27
2022-12-31T00:27:27.003Z,32.65
2022-12-31T00:28:29.198Z,32.00
2022-12-31T00:29:31.262Z,30.05
2022-12-31T00:30:34.492Z,31.70
2022-12-31T00:31:38.555Z,34.05
2022-12-31T00:32:40.887Z,32.60
2022-12-31T00:33:43.665Z,30.45
2022-12-31T00:34:45.913Z,34.13
2022-12-31T00:35:47.916Z,32.30
2022-12-31T00:36:49.891Z,32.60
2022-12-31T00:37:53.310Z,44.83
2022-12-31T00:38:58.725Z,33.20
2022-12-31T00:40:01.019Z,32.53
2022-12-31T00:41:04.778Z,40.40
2022-12-31T00:42:06.859Z,36.65
2022-12-31T00:43:08.856Z,34.33
2022-12-31T00:44:13.978Z,35.25
2022-12-31T00:45:16.043Z,36.30
2022-12-31T00:46:19.028Z,36.63
2022-12-31T00:47:21.045Z,33.05
2022-12-31T00:48:23.814Z,32.33
2022-12-31T00:49:25.767Z,30.73
2022-12-31T00:50:27.759Z,38.20
2022-12-31T00:51:30.631Z,38.00
2022-12-31T00:52:32.634Z,37.38
2022-12-31T00:53:37.888Z,35.22
2022-12-31T00:54:42.611Z,33.67
2022-12-31T00:55:44.600Z,32.40
2022-12-31T00:56:46.574Z,36.58
2022-12-31T00:57:48.772Z,32.88
2022-12-31T00:58:51.601Z,42.45
2022-12-31T00:59:53.628Z,44.03
2022-12-31T01:00:55.733Z,39.90
2022-12-31T01:01:57.981Z,37.67
2022-12-31T01:03:01.697Z,44.03
2022-12-31T01:04:15.626Z,47.80
2022-12-31T01:05:17.680Z,50.25
2022-12-31T01:06:20.375Z,53.22
2022-12-31T01:07:22.410Z,48.80
2022-12-31T01:08:24.444Z,58.13
2022-12-31T01:09:27.116Z,53.40
2022-12-31T01:10:47.585Z,54.17
2022-12-31T01:11:51.524Z,54.40
2022-12-31T01:12:53.526Z,50.93
2022-12-31T01:14:03.829Z,49.72
2022-12-31T01:15:06.457Z,55.33
2022-12-31T01:16:11.049Z,52.50
2022-12-31T01:17:13.787Z,58.85
2022-12-31T01:18:15.840Z,57.97
2022-12-31T01:19:21.936Z,58.40
2022-12-31T01:20:23.995Z,59.47
2022-12-31T01:21:27.412Z,50.70
2022-12-31T01:22:29.467Z,50.03
2022-12-31T01:23:32.330Z,50.97
2022-12-31T01:24:34.328Z,50.97
2022-12-31T01:25:38.280Z,56.35
2022-12-31T01:26:40.284Z,50.22
2022-12-31T01:27:42.274Z,50.70
2022-12-31T01:28:44.619Z,48.38
2022-12-31T01:29:47.189Z,47.47
2022-12-31T01:30:49.265Z,56.47
2022-12-31T01:31:51.427Z,57.28
2022-12-31T01:32:53.456Z,49.63
2022-12-31T01:33:55.839Z,52.30
2022-12-31T01:34:57.858Z,51.97
2022-12-31T01:36:08.432Z,51.33
2022-12-31T01:37:10.595Z,47.10
2022-12-31T01:38:13.169Z,49.95
2022-12-31T01:39:15.299Z,51.28
2022-12-31T01:40:17.451Z,51.58
2022-12-31T01:41:25.854Z,54.97
2022-12-31T01:42:27.882Z,56.15
2022-12-31T01:43:49.861Z,49.13
2022-12-31T01:44:54.831Z,55.03
2022-12-31T01:47:22.322Z,54.00
2022-12-31T01:48:26.981Z,56.90
2022-12-31T01:49:52.909Z,54.45
2022-12-31T01:50:55.918Z,64.63
2022-12-31T01:52:22.727Z,62.00
2022-12-31T01:53:26.099Z,63.30
2022-12-31T01:54:31.041Z,64.25
2022-12-31T01:55:57.977Z,68.78
2022-12-31T01:57:00.489Z,56.97
2022-12-31T01:58:11.830Z,63.25
2022-12-31T01:59:17.694Z,63.25
2022-12-31T02:00:20.162Z,59.03
2022-12-31T02:01:28.502Z,53.97
2022-12-31T02:02:30.804Z,56.97
2022-12-31T02:03:33.044Z,54.25
2022-12-31T02:04:38.291Z,59.30
2022-12-31T02:05:55.983Z,58.40
2022-12-31T02:07:04.626Z,56.92
2022-12-31T02:08:06.993Z,53.67
2022-12-31T02:09:12.399Z,57.10
2022-12-31T02:10:14.552Z,53.08
2022-12-31T02:11:28.687Z,47.88
2022-12-31T02:12:30.882Z,48.60
2022-12-31T02:13:32.995Z,49.15
2022-12-31T02:14:44.628Z,53.95
2022-12-31T02:16:03.179Z,52.17
2022-12-31T02:17:05.167Z,45.13
2022-12-31T02:18:18.176Z,53.15
2022-12-31T02:19:44.774Z,49.27
2022-12-31T02:21:22.915Z,48.47
2022-12-31T02:22:50.757Z,45.15
2022-12-31T02:24:30.126Z,44.78
2022-12-31T02:25:41.453Z,42.38
2022-12-31T02:27:22.405Z,49.55
2022-12-31T02:28:36.647Z,48.97
2022-12-31T02:29:56.475Z,47.38
2022-12-31T02:31:24.306Z,43.60
2022-12-31T02:32:37.134Z,49.47
2022-12-31T02:33:55.010Z,48.20
2022-12-31T02:35:03.383Z,53.08
2022-12-31T02:36:21.899Z,49.00
2022-12-31T02:37:28.660Z,46.88
2022-12-31T02:38:34.314Z,51.53
2022-12-31T02:39:37.767Z,50.70
2022-12-31T02:40:40.001Z,45.85
2022-12-31T02:41:52.115Z,51.72
2022-12-31T02:42:55.693Z,55.15
2022-12-31T02:43:57.935Z,53.63
2022-12-31T02:45:00.005Z,56.10
2022-12-31T02:46:22.200Z,54.70
2022-12-31T02:47:38.642Z,52.03
2022-12-31T02:48:55.003Z,51.28
2022-12-31T02:50:05.813Z,52.35
2022-12-31T02:51:39.808Z,50.17
2022-12-31T02:53:18.865Z,52.83
2022-12-31T02:54:48.995Z,44.92
2022-12-31T02:56:18.845Z,44.35
2022-12-31T02:57:40.457Z,52.38
2022-12-31T02:59:23.230Z,50.00
2022-12-31T03:00:43.850Z,45.97
2022-12-31T03:02:12.186Z,47.00
2022-12-31T03:03:14.310Z,50.20
2022-12-31T03:04:33.715Z,51.97
2022-12-31T03:05:41.581Z,56.42
2022-12-31T03:06:43.868Z,55.60
2022-12-31T03:07:46.315Z,54.97
2022-12-31T03:09:06.957Z,60.72
2022-12-31T03:10:09.877Z,60.78
2022-12-31T03:11:31.916Z,59.90
2022-12-31T03:12:50.237Z,63.28
2022-12-31T03:13:54.135Z,64.32
2022-12-31T03:14:56.711Z,59.42
2022-12-31T03:15:58.769Z,59.88
2022-12-31T03:17:00.797Z,58.03
2022-12-31T03:18:12.227Z,50.03
2022-12-31T03:19:32.683Z,52.38
2022-12-31T03:21:19.980Z,57.65
2022-12-31T03:22:27.791Z,53.30
2022-12-31T03:23:50.279Z,54.07
2022-12-31T03:25:10.721Z,56.17
2022-12-31T03:26:13.146Z,51.42
2022-12-31T03:27:15.186Z,51.20
2022-12-31T03:28:20.065Z,52.80
2022-12-31T03:29:22.207Z,51.10
2022-12-31T03:30:25.330Z,51.75
2022-12-31T03:31:27.603Z,46.65
2022-12-31T03:32:29.654Z,50.88
2022-12-31T03:33:34.156Z,55.95
2022-12-31T03:34:36.245Z,49.30
2022-12-31T03:35:40.658Z,56.70
2022-12-31T03:36:42.603Z,58.67
2022-12-31T03:37:44.568Z,60.92
2022-12-31T03:38:51.220Z,63.30
2022-12-31T03:39:54.808Z,63.67
2022-12-31T03:40:56.938Z,51.15
2022-12-31T03:41:58.995Z,58.85
2022-12-31T03:43:01.076Z,66.90
2022-12-31T03:44:03.070Z,58.65
2022-12-31T03:45:06.138Z,51.20
2022-12-31T03:46:08.077Z,55.47
2022-12-31T03:47:10.189Z,64.43
2022-12-31T03:48:13.210Z,53.88
2022-12-31T03:49:20.258Z,56.50
2022-12-31T03:50:22.328Z,56.33
2022-12-31T03:51:24.294Z,55.40
2022-12-31T03:52:26.279Z,58.33
2022-12-31T03:53:28.328Z,58.83
2022-12-31T03:54:31.193Z,55.08
2022-12-31T03:55:33.275Z,48.20
2022-12-31T03:56:35.278Z,51.97
2022-12-31T03:57:38.442Z,53.40
2022-12-31T03:58:40.483Z,60.13
2022-12-31T03:59:42.605Z,53.92
2022-12-31T04:00:44.585Z,55.83
2022-12-31T04:01:46.827Z,51.50
2022-12-31T04:02:50.088Z,57.60
2022-12-31T04:03:52.263Z,58.40
2022-12-31T04:04:54.394Z,55.85
2022-12-31T04:05:56.403Z,64.20
2022-12-31T04:06:58.361Z,54.25
2022-12-31T04:08:01.635Z,55.30
2022-12-31T04:09:04.020Z,59.97
2022-12-31T04:10:08.393Z,54.80
2022-12-31T04:11:11.414Z,50.15
2022-12-31T04:12:15.806Z,52.67
2022-12-31T04:13:17.835Z,53.17
2022-12-31T04:14:20.073Z,52.45
2022-12-31T04:15:22.425Z,51.88
2022-12-31T04:16:24.434Z,55.10
2022-12-31T04:17:27.064Z,54.70
2022-12-31T04:18:29.023Z,52.35
2022-12-31T04:19:31.042Z,59.20
2022-12-31T04:20:33.049Z,57.40
2022-12-31T04:21:35.609Z,57.42
2022-12-31T04:22:38.073Z,52.30
2022-12-31T04:23:40.155Z,50.60
2022-12-31T04:24:43.337Z,57.38
2022-12-31T04:25:45.397Z,51.70
2022-12-31T04:26:47.517Z,48.57
2022-12-31T04:27:49.521Z,49.00
2022-12-31T04:28:51.586Z,54.53
2022-12-31T04:29:53.685Z,55.53
2022-12-31T04:30:55.851Z,55.00
2022-12-31T04:31:58.046Z,52.72
2022-12-31T04:33:02.065Z,54.00
2022-12-31T04:34:07.098Z,55.42
2022-12-31T04:35:11.785Z,50.47
2022-12-31T04:36:13.795Z,52.30
2022-12-31T04:37:15.835Z,49.87
2022-12-31T04:38:17.859Z,54.95
2022-12-31T04:39:19.951Z,54.78
2022-12-31T04:40:21.903Z,50.35
2022-12-31T04:41:27.008Z,51.17
2022-12-31T04:42:29.044Z,58.40
2022-12-31T04:43:31.090Z,52.78
2022-12-31T04:44:34.974Z,54.65
2022-12-31T04:45:37.441Z,55.92
2022-12-31T04:46:39.460Z,55.15
2022-12-31T04:47:41.529Z,49.13
2022-12-31T04:48:44.867Z,51.13
2022-12-31T04:49:46.814Z,50.63
2022-12-31T04:50:48.827Z,49.65
2022-12-31T04:51:50.835Z,55.22
2022-12-31T04:52:52.842Z,53.75
2022-12-31T04:53:55.101Z,54.05
2022-12-31T04:54:57.058Z,54.40
2022-12-31T04:55:59.155Z,54.83
2022-12-31T04:57:01.117Z,57.83
2022-12-31T04:58:03.127Z,49.10
2022-12-31T04:59:05.455Z,52.67
2022-12-31T05:00:08.201Z,55.15
2022-12-31T05:01:10.854Z,58.42
2022-12-31T05:02:13.074Z,54.22
2022-12-31T05:03:15.887Z,58.13
2022-12-31T05:04:17.874Z,58.20
2022-12-31T05:05:19.898Z,61.17
2022-12-31T05:06:23.732Z,56.67
2022-12-31T05:07:25.796Z,53.85
2022-12-31T05:08:27.778Z,55.13
2022-12-31T05:09:31.025Z,59.67
2022-12-31T05:10:33.108Z,54.03
2022-12-31T05:11:35.911Z,54.33
2022-12-31T05:12:38.792Z,54.67
2022-12-31T05:13:40.954Z,52.65
2022-12-31T05:14:44.427Z,52.30
2022-12-31T05:15:47.646Z,55.72
2022-12-31T05:16:49.766Z,49.88
2022-12-31T05:17:51.715Z,52.88
2022-12-31T05:18:54.371Z,52.03
2022-12-31T05:19:56.333Z,50.47
2022-12-31T05:20:58.384Z,55.40
2022-12-31T05:22:19.190Z,56.63
2022-12-31T05:23:21.697Z,60.50
2022-12-31T05:24:23.696Z,56.92
2022-12-31T05:25:25.716Z,53.45
2022-12-31T05:26:27.710Z,49.42
2022-12-31T05:27:31.211Z,52.90
2022-12-31T05:28:33.505Z,52.33
2022-12-31T05:29:35.495Z,50.43
2022-12-31T05:30:37.685Z,48.58
2022-12-31T05:31:39.807Z,47.00
2022-12-31T05:32:41.866Z,51.10
2022-12-31T05:33:43.890Z,51.25
2022-12-31T05:34:45.953Z,56.60
2022-12-31T05:35:47.990Z,52.25
2022-12-31T05:36:49.960Z,54.50
2022-12-31T05:37:51.990Z,54.55
2022-12-31T05:38:53.965Z,53.10
2022-12-31T05:39:56.147Z,52.17
2022-12-31T05:41:04.009Z,52.65
2022-12-31T05:42:06.034Z,53.90
2022-12-31T05:43:07.997Z,55.70
2022-12-31T05:44:11.047Z,61.25
2022-12-31T05:45:13.571Z,59.60
2022-12-31T05:46:16.340Z,54.13
2022-12-31T05:47:18.852Z,53.67
2022-12-31T05:48:21.037Z,50.25
2022-12-31T05:49:23.051Z,51.75
2022-12-31T05:50:25.370Z,47.67
2022-12-31T05:51:31.219Z,56.15
2022-12-31T05:52:33.240Z,51.75
2022-12-31T05:53:35.295Z,58.58
2022-12-31T05:54:37.604Z,55.63
2022-12-31T05:55:41.349Z,54.63
2022-12-31T05:56:43.286Z,52.53
2022-12-31T05:57:46.885Z,49.85
2022-12-31T05:58:48.916Z,55.75
2022-12-31T05:59:53.539Z,54.03
2022-12-31T06:00:55.608Z,51.87
2022-12-31T06:01:58.128Z,54.58
2022-12-31T06:03:00.193Z,54.92
2022-12-31T06:04:02.357Z,52.45
2022-12-31T06:05:05.805Z,50.47
2022-12-31T06:06:08.603Z,51.85
2022-12-31T06:07:10.683Z,53.05
2022-12-31T06:08:12.949Z,54.13
2022-12-31T06:09:17.104Z,54.33
2022-12-31T06:10:19.098Z,51.63
2022-12-31T06:11:21.108Z,52.20
2022-12-31T06:12:23.859Z,53.80
2022-12-31T06:13:25.979Z,47.78
2022-12-31T06:14:27.952Z,48.50
2022-12-31T06:15:30.083Z,56.40
2022-12-31T06:16:32.303Z,49.78
2022-12-31T06:17:35.732Z,47.08
2022-12-31T06:18:38.090Z,50.45
2022-12-31T06:19:40.054Z,48.75
2022-12-31T06:20:42.264Z,50.63
2022-12-31T06:21:44.271Z,54.03
2022-12-31T06:22:46.781Z,48.60
2022-12-31T06:23:49.105Z,46.55
2022-12-31T06:24:51.124Z,48.28
2022-12-31T06:25:53.202Z,47.50
2022-12-31T06:26:55.330Z,46.65
2022-12-31T06:27:57.401Z,45.53
2022-12-31T06:28:59.437Z,50.53
2022-12-31T06:30:01.428Z,47.40
2022-12-31T06:31:05.994Z,55.15
2022-12-31T06:32:07.998Z,50.23
2022-12-31T06:33:10.595Z,51.65
2022-12-31T06:34:12.683Z,46.13
2022-12-31T06:35:14.770Z,45.05
2022-12-31T06:36:17.267Z,47.25
2022-12-31T06:37:19.368Z,49.63
2022-12-31T06:38:21.424Z,46.15
2022-12-31T06:39:23.553Z,44.55
2022-12-31T06:40:25.598Z,46.78
2022-12-31T06:41:27.592Z,45.35
2022-12-31T06:42:31.075Z,50.30
2022-12-31T06:43:35.053Z,44.97
2022-12-31T06:44:37.964Z,43.67
2022-12-31T06:45:39.967Z,42.70
2022-12-31T06:46:42.262Z,42.03
2022-12-31T06:47:44.434Z,43.53
2022-12-31T06:48:46.504Z,43.70
2022-12-31T06:49:48.614Z,46.30
2022-12-31T06:50:50.588Z,41.15
2022-12-31T06:51:53.245Z,47.17
2022-12-31T06:52:55.319Z,50.33
2022-12-31T06:53:57.281Z,45.20
2022-12-31T06:55:01.805Z,46.28
2022-12-31T06:56:08.883Z,44.55
2022-12-31T06:57:11.270Z,41.88
2022-12-31T06:58:17.365Z,43.22
2022-12-31T06:59:29.761Z,41.70
2022-12-31T07:00:31.907Z,43.58
2022-12-31T07:01:39.734Z,39.97
2022-12-31T07:03:01.728Z,37.20
2022-12-31T07:04:15.929Z,38.10
2022-12-31T07:05:47.536Z,39.33
2022-12-31T07:07:00.887Z,41.20
2022-12-31T07:08:05.847Z,41.00
2022-12-31T07:09:11.765Z,39.58
2022-12-31T07:10:30.607Z,39.17
2022-12-31T07:11:52.845Z,40.30
2022-12-31T07:13:28.293Z,38.97
2022-12-31T07:14:59.181Z,36.42
2022-12-31T07:16:42.708Z,38.55
2022-12-31T07:18:29.247Z,44.83
2022-12-31T07:19:34.352Z,45.40
2022-12-31T07:20:36.642Z,49.72
2022-12-31T07:21:41.345Z,51.90
2022-12-31T07:22:44.277Z,50.70
2022-12-31T07:23:46.513Z,43.38
2022-12-31T07:24:48.786Z,55.15
2022-12-31T07:26:11.033Z,49.42
2022-12-31T07:27:25.824Z,50.90
2022-12-31T07:28:38.782Z,53.53
2022-12-31T07:30:01.830Z,57.20
2022-12-31T07:31:12.495Z,60.55
2022-12-31T07:32:38.901Z,57.25
2022-12-31T07:34:08.532Z,61.83
2022-12-31T07:35:57.071Z,59.17
2022-12-31T07:37:30.800Z,58.00
2022-12-31T07:38:38.690Z,52.55
2022-12-31T07:40:03.906Z,53.38
2022-12-31T07:41:24.093Z,56.40
2022-12-31T07:42:33.258Z,52.58
2022-12-31T07:44:05.609Z,52.97
2022-12-31T07:45:34.517Z,52.22
2022-12-31T07:46:41.399Z,51.08
2022-12-31T07:47:43.906Z,51.65
2022-12-31T07:48:46.163Z,50.85
2022-12-31T07:49:48.573Z,51.92
2022-12-31T07:50:52.521Z,44.97
2022-12-31T07:51:55.013Z,45.75
2022-12-31T07:52:57.287Z,44.65
2022-12-31T07:53:59.404Z,41.63
2022-12-31T07:55:01.434Z,42.37
2022-12-31T07:56:07.393Z,45.30
2022-12-31T07:57:14.144Z,45.70
2022-12-31T07:58:22.753Z,45.10
2022-12-31T07:59:44.095Z,45.70
2022-12-31T08:00:46.686Z,46.25
2022-12-31T08:01:48.868Z,49.67
2022-12-31T08:02:51.002Z,51.17
2022-12-31T08:03:58.959Z,47.72
2022-12-31T08:05:12.685Z,45.30
2022-12-31T08:06:36.010Z,45.33
2022-12-31T08:07:50.903Z,52.53
2022-12-31T08:09:09.155Z,46.03
2022-12-31T08:10:21.230Z,53.08
2022-12-31T08:11:28.501Z,60.38
2022-12-31T08:12:35.099Z,49.53
2022-12-31T08:13:38.099Z,61.40
2022-12-31T08:14:44.875Z,52.33
2022-12-31T08:15:47.118Z,53.47
2022-12-31T08:16:49.670Z,45.08
2022-12-31T08:17:52.008Z,43.17
2022-12-31T08:18:54.325Z,41.45
2022-12-31T08:19:56.686Z,44.58
2022-12-31T08:21:01.690Z,53.00
2022-12-31T08:22:28.557Z,50.72
2022-12-31T08:23:47.634Z,45.70
2022-12-31T08:25:20.614Z,45.20
2022-12-31T08:27:03.699Z,45.80
2022-12-31T08:28:43.223Z,41.25
2022-12-31T08:29:51.883Z,43.33
2022-12-31T08:30:58.549Z,41.13
2022-12-31T08:32:14.459Z,32.75
2022-12-31T08:33:32.491Z,37.50
2022-12-31T08:34:46.533Z,32.08
2022-12-31T08:36:11.042Z,37.28
2022-12-31T08:37:39.291Z,38.08
2022-12-31T08:39:03.045Z,40.67
2022-12-31T08:40:29.112Z,39.63
2022-12-31T08:41:43.143Z,42.47
2022-12-31T08:43:00.637Z,35.10
2022-12-31T08:44:22.030Z,33.00
2022-12-31T08:45:31.667Z,34.33
2022-12-31T08:47:08.042Z,38.10
2022-12-31T08:48:41.911Z,42.33
2022-12-31T08:49:44.253Z,35.13
2022-12-31T08:50:47.105Z,34.55
2022-12-31T08:51:49.352Z,36.20
2022-12-31T08:52:51.624Z,32.45
2022-12-31T08:53:55.386Z,33.08
2022-12-31T08:54:57.797Z,36.83
2022-12-31T08:56:10.395Z,32.27
2022-12-31T08:57:21.516Z,32.38
2022-12-31T08:58:29.639Z,34.15
2022-12-31T09:00:08.413Z,34.38
2022-12-31T09:01:12.699Z,34.20
2022-12-31T09:02:20.953Z,34.00
2022-12-31T09:04:07.767Z,33.28
2022-12-31T09:05:12.614Z,32.47
2022-12-31T09:06:31.187Z,30.15
2022-12-31T09:07:39.368Z,31.75
2022-12-31T09:08:51.168Z,28.33
2022-12-31T09:10:08.513Z,30.30
2022-12-31T09:11:22.875Z,29.92
2022-12-31T09:12:49.748Z,33.80
2022-12-31T09:14:16.124Z,31.52
2022-12-31T09:15:40.940Z,31.75
2022-12-31T09:16:48.174Z,31.42
2022-12-31T09:17:51.297Z,33.97
2022-12-31T09:18:53.306Z,32.20
2022-12-31T09:19:55.632Z,27.92
2022-12-31T09:20:58.339Z,31.50
2022-12-31T09:22:00.596Z,28.17
2022-12-31T09:23:04.351Z,30.90
2022-12-31T09:24:09.453Z,27.80
2022-12-31T09:25:20.027Z,27.70
2022-12-31T09:26:37.650Z,25.80
2022-12-31T09:28:03.636Z,29.23
2022-12-31T09:29:17.867Z,31.40
2022-12-31T09:30:20.390Z,27.73
2022-12-31T09:31:35.676Z,29.27
2022-12-31T09:33:14.851Z,26.43
2022-12-31T09:34:29.661Z,27.02
2022-12-31T09:36:06.849Z,25.23
2022-12-31T09:37:25.432Z,26.83
2022-12-31T09:39:19.742Z,30.55
2022-12-31T09:40:48.104Z,28.70
2022-12-31T09:42:23.753Z,27.42
2022-12-31T09:43:47.830Z,26.83
2022-12-31T09:45:16.999Z,25.35
2022-12-31T09:46:57.587Z,26.27
2022-12-31T09:48:28.776Z,25.40
2022-12-31T09:49:36.756Z,25.40
2022-12-31T09:51:02.958Z,24.88
2022-12-31T09:52:30.919Z,26.08
2022-12-31T09:53:39.206Z,30.70
2022-12-31T09:54:54.220Z,23.58
2022-12-31T09:56:23.521Z,26.60
2022-12-31T09:57:53.995Z,27.88
2022-12-31T09:59:20.758Z,27.00
2022-12-31T10:00:31.052Z,23.90
2022-12-31T10:01:33.135Z,26.30
2022-12-31T10:03:13.392Z,23.30
2022-12-31T10:04:40.887Z,24.63
2022-12-31T10:06:00.616Z,27.17
2022-12-31T10:07:14.857Z,23.42
2022-12-31T10:08:48.097Z,22.40
2022-12-31T10:10:08.587Z,22.88
2022-12-31T10:11:31.214Z,23.75
2022-12-31T10:12:39.792Z,22.15
2022-12-31T10:14:03.496Z,21.92
2022-12-31T10:15:15.839Z,21.07
2022-12-31T10:16:32.183Z,22.65
2022-12-31T10:18:03.202Z,20.95
2022-12-31T10:19:44.958Z,24.15
2022-12-31T10:21:11.198Z,24.02
2022-12-31T10:22:57.836Z,20.05
2022-12-31T10:24:18.766Z,21.80
2022-12-31T10:26:07.893Z,19.98
2022-12-31T10:27:14.318Z,24.50
2022-12-31T10:28:25.239Z,22.83
2022-12-31T10:29:47.707Z,23.03
2022-12-31T10:30:59.429Z,23.90
2022-12-31T10:32:31.686Z,24.30
2022-12-31T10:33:43.284Z,26.60
2022-12-31T10:34:56.414Z,23.70
2022-12-31T10:36:15.231Z,18.25
2022-12-31T10:37:38.789Z,21.35
2022-12-31T10:39:16.346Z,20.55
2022-12-31T10:40:45.417Z,17.63
2022-12-31T10:41:59.077Z,25.38
2022-12-31T10:43:25.488Z,25.03
2022-12-31T10:44:47.686Z,25.05
2022-12-31T10:46:35.560Z,22.30
2022-12-31T10:48:15.767Z,21.02
2022-12-31T10:50:02.519Z,25.25
2022-12-31T10:51:25.895Z,20.70
2022-12-31T10:53:15.556Z,24.67
2022-12-31T10:54:54.872Z,21.13
2022-12-31T10:56:19.960Z,19.85
2022-12-31T10:57:52.851Z,22.00
2022-12-31T10:59:22.232Z,22.50
2022-12-31T11:00:27.230Z,18.25
2022-12-31T11:02:07.360Z,17.33
2022-12-31T11:03:29.308Z,22.25
2022-12-31T11:04:55.979Z,17.95
2022-12-31T11:06:23.359Z,20.02
2022-12-31T11:07:43.629Z,18.75
2022-12-31T11:09:09.160Z,21.90
2022-12-31T11:10:31.238Z,20.25
2022-12-31T11:11:55.755Z,21.65
2022-12-31T11:13:00.965Z,22.53
2022-12-31T11:14:45.409Z,17.35
2022-12-31T11:15:56.523Z,18.98
2022-12-31T11:17:12.607Z,17.05
2022-12-31T11:18:23.809Z,18.55
2022-12-31T11:20:03.562Z,16.17
2022-12-31T11:21:16.241Z,14.27
2022-12-31T11:22:33.403Z,16.17
2022-12-31T11:24:17.644Z,18.02
2022-12-31T11:25:29.634Z,16.08
2022-12-31T11:26:46.901Z,16.73
2022-12-31T11:28:04.682Z,16.48
2022-12-31T11:29:18.791Z,17.08
2022-12-31T11:30:34.000Z,20.30
2022-12-31T11:31:42.888Z,15.77
2022-12-31T11:32:56.185Z,15.40
2022-12-31T11:34:34.413Z,14.80
2022-12-31T11:36:14.045Z,18.60
2022-12-31T11:37:34.001Z,21.50
2022-12-31T11:39:01.339Z,17.73
2022-12-31T11:40:44.125Z,12.80
2022-12-31T11:42:24.125Z,17.55
2022-12-31T11:44:16.438Z,19.33
2022-12-31T11:45:54.085Z,20.27
2022-12-31T11:47:24.062Z,17.70
2022-12-31T11:49:02.865Z,19.02
2022-12-31T11:50:15.330Z,18.70
2022-12-31T11:51:48.457Z,18.88
2022-12-31T11:53:24.188Z,16.17
2022-12-31T11:54:42.515Z,17.75
2022-12-31T11:55:47.549Z,14.13
2022-12-31T11:57:22.519Z,15.02
2022-12-31T11:58:28.784Z,18.35
2022-12-31T11:59:31.240Z,21.85
2022-12-31T12:00:33.747Z,18.98
2022-12-31T12:02:03.383Z,16.05
2022-12-31T12:03:07.302Z,16.67
2022-12-31T12:04:11.051Z,17.60
2022-12-31T12:05:17.146Z,15.43
2022-12-31T12:06:27.607Z,14.23
2022-12-31T12:07:31.468Z,14.10
2022-12-31T12:08:34.660Z,18.27
2022-12-31T12:09:36.704Z,16.00
2022-12-31T12:10:45.450Z,16.00
2022-12-31T12:12:02.558Z,14.07
2022-12-31T12:13:30.732Z,14.13
2022-12-31T12:14:36.286Z,16.38
2022-12-31T12:15:38.398Z,15.05
2022-12-31T12:16:40.551Z,14.48
2022-12-31T12:17:45.744Z,18.27
2022-12-31T12:19:04.927Z,20.17
2022-12-31T12:20:20.541Z,16.83
2022-12-31T12:21:25.317Z,20.23
2022-12-31T12:22:29.738Z,15.57
2022-12-31T12:23:32.970Z,18.20
2022-12-31T12:24:34.963Z,20.48
2022-12-31T12:25:39.998Z,15.05
2022-12-31T12:26:44.529Z,15.30
2022-12-31T12:27:47.177Z,16.15
2022-12-31T12:28:49.218Z,15.63
2022-12-31T12:29:51.276Z,17.10
2022-12-31T12:31:02.851Z,16.73
2022-12-31T12:32:18.229Z,18.77
2022-12-31T12:33:21.704Z,18.30
2022-12-31T12:34:26.786Z,14.73
2022-12-31T12:35:34.300Z,16.52
2022-12-31T12:36:46.977Z,16.02
2022-12-31T12:37:59.397Z,22.30
2022-12-31T12:39:06.224Z,16.58
2022-12-31T12:40:33.898Z,15.55
2022-12-31T12:41:36.466Z,18.07
2022-12-31T12:42:52.170Z,14.23
2022-12-31T12:44:09.019Z,18.55
2022-12-31T12:45:16.992Z,19.00
2022-12-31T12:46:22.322Z,19.02
2022-12-31T12:47:26.359Z,19.40
2022-12-31T12:48:39.030Z,13.73
2022-12-31T12:49:49.356Z,17.85
2022-12-31T12:50:52.459Z,15.07
2022-12-31T12:52:27.926Z,15.27
2022-12-31T12:53:42.031Z,18.90
2022-12-31T12:54:59.890Z,13.18
2022-12-31T12:56:31.261Z,16.42
2022-12-31T12:57:43.052Z,13.23
2022-12-31T12:59:17.437Z,18.70
2022-12-31T13:00:29.702Z,18.65
2022-12-31T13:01:59.710Z,15.10
2022-12-31T13:03:29.088Z,13.20
2022-12-31T13:04:41.527Z,14.18
2022-12-31T13:05:43.621Z,15.27
2022-12-31T13:07:11.417Z,15.47
2022-12-31T13:08:22.827Z,15.32
2022-12-31T13:09:54.666Z,23.85
2022-12-31T13:11:02.711Z,13.35
2022-12-31T13:12:08.116Z,17.42
2022-12-31T13:13:26.265Z,12.63
2022-12-31T13:15:05.577Z,17.67
2022-12-31T13:16:22.430Z,15.93
2022-12-31T13:18:03.249Z,14.02
2022-12-31T13:19:13.406Z,19.52
2022-12-31T13:20:31.571Z,14.67
2022-12-31T13:21:44.942Z,17.02
2022-12-31T13:23:15.257Z,14.38
2022-12-31T13:24:35.869Z,16.25
2022-12-31T13:25:59.606Z,17.83
2022-12-31T13:27:26.261Z,17.00
2022-12-31T13:28:30.608Z,15.95
2022-12-31T13:29:35.189Z,14.77
2022-12-31T13:30:43.149Z,18.63
2022-12-31T13:31:48.024Z,14.05
2022-12-31T13:33:04.395Z,11.73
2022-12-31T13:34:17.291Z,12.73
2022-12-31T13:35:29.279Z,13.70
2022-12-31T13:36:35.322Z,13.38
2022-12-31T13:37:40.761Z,15.23
2022-12-31T13:38:49.995Z,13.70
2022-12-31T13:40:16.807Z,15.38
2022-12-31T13:41:34.375Z,10.35
2022-12-31T13:43:16.050Z,12.93
2022-12-31T13:44:40.027Z,12.93
2022-12-31T13:45:45.104Z,10.90
2022-12-31T13:47:03.157Z,21.48
2022-12-31T13:48:16.682Z,17.60
2022-12-31T13:49:42.195Z,14.73
2022-12-31T13:51:00.809Z,16.40
2022-12-31T13:52:27.196Z,13.05
2022-12-31T13:55:58.010Z,15.13
2022-12-31T13:57:05.197Z,17.00
2022-12-31T13:58:27.878Z,15.77
2022-12-31T13:59:37.608Z,14.60
2022-12-31T14:00:53.127Z,12.32
2022-12-31T14:02:01.919Z,11.93
2022-12-31T14:03:15.678Z,13.30
2022-12-31T14:04:21.539Z,15.70
2022-12-31T14:05:47.345Z,13.27
2022-12-31T14:07:13.620Z,16.15
2022-12-31T14:08:16.199Z,15.90
2022-12-31T14:09:24.998Z,15.15
2022-12-31T14:10:53.069Z,18.95
2022-12-31T14:12:19.183Z,16.67
2022-12-31T14:13:39.401Z,15.77
2022-12-31T14:14:48.178Z,14.52
2022-12-31T14:16:20.833Z,15.00
2022-12-31T14:17:43.734Z,17.73
2022-12-31T14:19:13.954Z,21.98
2022-12-31T14:20:37.218Z,14.13
2022-12-31T14:21:48.085Z,14.13
2022-12-31T14:23:18.834Z,15.63
2022-12-31T14:24:44.987Z,14.93
2022-12-31T14:25:53.628Z,18.50
2022-12-31T14:27:00.722Z,15.63
2022-12-31T14:28:05.859Z,17.38
2022-12-31T14:29:11.035Z,17.77
2022-12-31T14:30:21.959Z,15.32
2022-12-31T14:31:44.240Z,12.55
2022-12-31T14:33:18.587Z,14.45
2022-12-31T14:34:39.334Z,18.50
2022-12-31T14:36:08.284Z,14.68
2022-12-31T14:37:23.308Z,17.70
2022-12-31T14:38:42.591Z,20.97
2022-12-31T14:40:21.131Z,16.42
2022-12-31T14:41:33.165Z,17.50
2022-12-31T14:42:56.809Z,14.23
2022-12-31T14:44:18.732Z,14.90
2022-12-31T14:45:21.004Z,19.17
2022-12-31T14:46:38.383Z,17.55
2022-12-31T14:47:55.167Z,15.98
2022-12-31T14:49:34.824Z,15.75
2022-12-31T14:50:37.874Z,15.32
2022-12-31T14:51:39.994Z,12.97
2022-12-31T14:52:50.482Z,23.48
2022-12-31T14:54:00.362Z,19.17
2022-12-31T14:55:24.717Z,14.00
2022-12-31T14:56:40.318Z,20.60
2022-12-31T14:58:25.804Z,23.83
2022-12-31T14:59:40.829Z,17.35
2022-12-31T15:00:58.972Z,20.13
2022-12-31T15:02:01.718Z,17.35
2022-12-31T15:03:07.120Z,15.60
2022-12-31T15:04:15.196Z,18.10
2022-12-31T15:05:21.321Z,17.45
2022-12-31T15:06:23.322Z,18.05
2022-12-31T15:07:40.740Z,15.13
2022-12-31T15:09:17.601Z,19.90
2022-12-31T15:10:57.291Z,21.23
2022-12-31T15:12:20.557Z,15.35
2022-12-31T15:13:38.750Z,15.05
2022-12-31T15:15:11.804Z,24.58
2022-12-31T15:16:20.025Z,37.72
2022-12-31T15:17:59.434Z,25.83
2022-12-31T15:19:33.703Z,22.63
2022-12-31T15:21:08.611Z,19.63
2022-12-31T15:22:29.216Z,20.13
2022-12-31T15:23:42.395Z,26.98
2022-12-31T15:24:46.982Z,26.33